Time;durP1;ratioP1;P1;durP2;ratioP2;P2;SDS_P1;SDS_P2;PMS_P1;PMS_P2;Temp;Humidity;BMP_temperature;BMP_pressure;BME280_temperature;BME280_humidity;BME280_pressure;Samples;Min_cycle;Max_cycle;Signal;HPM_P1;HPM_P2
2022/09/28 00:00:53;;;;;;;18.50;13.32;;;;;;;5.96;100.00;99408.84;6094092;23;20006;-87
2022/09/28 00:03:19;;;;;;;16.48;12.88;;;;;;;5.99;100.00;99416.59;6093609;23;20380;-87
2022/09/28 00:05:44;;;;;;;18.23;13.35;;;;;;;5.94;100.00;99413.38;6092925;23;20010;-87
2022/09/28 00:08:09;;;;;;;17.02;13.35;;;;;;;5.91;100.00;99410.84;6094663;23;20007;-87
2022/09/28 00:10:34;;;;;;;19.60;13.90;;;;;;;5.95;100.00;99415.06;6068689;23;20006;-86
2022/09/28 00:13:00;;;;;;;18.55;14.45;;;;;;;5.95;100.00;99414.22;6093748;23;20010;-86
2022/09/28 00:15:26;;;;;;;19.00;14.60;;;;;;;5.97;100.00;99414.97;6093417;23;20033;-88
2022/09/28 00:17:51;;;;;;;19.33;15.20;;;;;;;5.99;100.00;99419.25;6093605;23;20006;-89
2022/09/28 00:20:18;;;;;;;18.08;14.52;;;;;;;5.99;100.00;99416.59;6068405;23;20020;-87
2022/09/28 00:22:43;;;;;;;22.83;15.50;;;;;;;5.94;100.00;99409.88;6094822;23;20003;-87
2022/09/28 00:25:09;;;;;;;21.73;15.68;;;;;;;6.01;100.00;99419.16;6093787;23;20006;-87
2022/09/28 00:27:34;;;;;;;19.08;14.85;;;;;;;5.99;100.00;99427.16;6093886;23;20006;-87
2022/09/28 00:29:59;;;;;;;21.23;14.95;;;;;;;5.90;100.00;99418.88;6067953;23;20003;-86
2022/09/28 00:32:25;;;;;;;22.17;15.05;;;;;;;5.88;100.00;99418.94;6094509;23;20009;-87
2022/09/28 00:34:51;;;;;;;24.17;15.82;;;;;;;5.86;100.00;99415.53;6096543;23;20021;-87
2022/09/28 00:37:18;;;;;;;25.90;16.10;;;;;;;5.86;100.00;99414.69;6068700;23;20014;-88
2022/09/28 00:39:43;;;;;;;22.17;16.70;;;;;;;5.84;100.00;99403.34;6068500;23;20006;-88
2022/09/28 00:42:18;;;;;;;25.10;18.15;;;;;;;5.88;100.00;99399.59;6094029;23;20345;-87
2022/09/28 00:44:52;;;;;;;25.05;19.05;;;;;;;5.96;100.00;99400.91;6068042;23;20081;-88
2022/09/28 00:47:26;;;;;;;25.60;19.13;;;;;;;6.01;100.00;99398.03;6092193;23;20021;-88
2022/09/28 00:50:07;;;;;;;23.23;17.83;;;;;;;6.03;100.00;99400.59;6067232;23;20170;-88
2022/09/28 00:52:44;;;;;;;27.00;17.58;;;;;;;6.00;100.00;99391.03;6092821;23;20089;-88
2022/09/28 00:55:15;;;;;;;28.15;17.92;;;;;;;6.08;100.00;99404.69;6065914;23;20337;-88
2022/09/28 00:57:46;;;;;;;27.08;19.02;;;;;;;6.02;100.00;99381.25;6092554;23;20006;-89
2022/09/28 01:00:12;;;;;;;26.55;17.85;;;;;;;6.03;100.00;99390.88;6091864;23;20010;-88
2022/09/28 01:02:37;;;;;;;26.50;18.25;;;;;;;5.95;100.00;99370.16;6065929;23;20010;-88
2022/09/28 01:05:05;;;;;;;22.98;17.63;;;;;;;6.01;100.00;99395.38;6066347;23;20011;-88
2022/09/28 01:07:32;;;;;;;24.55;17.67;;;;;;;5.98;100.00;99380.56;6065798;23;20022;-88
2022/09/28 01:09:57;;;;;;;27.42;18.23;;;;;;;6.03;100.00;99382.09;6091251;23;20010;-88
2022/09/28 01:12:23;;;;;;;24.85;18.38;;;;;;;6.00;100.00;99375.19;6092170;23;20006;-87
2022/09/28 01:14:49;;;;;;;25.02;18.17;;;;;;;6.04;100.00;99382.00;6092141;23;20006;-87
2022/09/28 01:17:21;;;;;;;28.35;19.02;;;;;;;6.06;100.00;99380.16;6091863;23;20010;-87
2022/09/28 01:19:59;;;;;;;25.40;17.90;;;;;;;6.09;100.00;99381.75;6093073;23;20014;-88
2022/09/28 01:22:44;;;;;;;24.48;18.70;;;;;;;6.12;100.00;99377.16;6092809;23;20412;-87
2022/09/28 01:25:15;;;;;;;26.33;19.63;;;;;;;6.15;100.00;99384.06;6091236;23;20022;-88
2022/09/28 01:27:40;;;;;;;28.67;20.58;;;;;;;6.17;100.00;99387.47;6092170;23;20041;-87
2022/09/28 01:30:10;;;;;;;27.30;20.67;;;;;;;6.20;100.00;99392.59;6092149;23;20010;-88
2022/09/28 01:32:42;;;;;;;29.42;21.08;;;;;;;6.19;100.00;99385.59;6091969;23;20006;-87
2022/09/28 01:35:17;;;;;;;30.75;21.42;;;;;;;6.24;100.00;99389.69;6065136;23;20022;-88
2022/09/28 01:37:53;;;;;;;34.67;23.55;;;;;;;6.27;100.00;99393.94;6092442;23;20022;-87
2022/09/28 01:40:25;;;;;;;33.17;23.52;;;;;;;6.20;100.00;99376.72;6092485;23;20009;-88
2022/09/28 01:42:56;;;;;;;35.42;24.92;;;;;;;6.22;100.00;99380.13;6092944;23;20421;-88
2022/09/28 01:45:27;;;;;;;34.78;25.15;;;;;;;6.31;100.00;99397.25;6091847;23;20041;-88
2022/09/28 01:47:59;;;;;;;38.92;26.50;;;;;;;6.30;100.00;99392.91;6097469;23;20029;-87
2022/09/28 01:50:28;;;;;;;39.97;26.42;;;;;;;6.34;100.00;99400.56;6101520;23;20451;-87
2022/09/28 01:53:06;;;;;;;37.88;26.33;;;;;;;6.29;100.00;99399.97;6106659;23;20063;-87
2022/09/28 01:55:41;;;;;;;40.95;27.40;;;;;;;6.33;100.00;99404.16;6105289;23;20010;-87
2022/09/28 01:58:09;;;;;;;44.80;29.00;;;;;;;6.39;100.00;99401.16;6092549;23;20061;-88
2022/09/28 02:00:40;;;;;;;47.05;30.50;;;;;;;6.41;100.00;99403.72;6091601;23;20006;-87
2022/09/28 02:03:13;;;;;;;40.47;29.92;;;;;;;6.35;100.00;99394.34;6065932;23;20341;-87
2022/09/28 02:05:41;;;;;;;49.33;30.73;;;;;;;6.43;100.00;99404.47;6093132;23;20477;-88
2022/09/28 02:08:20;;;;;;;46.42;31.42;;;;;;;6.40;100.00;99394.97;6093063;23;20492;-88
2022/09/28 02:10:55;;;;;;;44.80;31.10;;;;;;;6.32;100.00;99378.69;6067837;23;20041;-88
2022/09/28 02:13:28;;;;;;;49.70;30.95;;;;;;;6.40;100.00;99388.81;6093461;23;20009;-88
2022/09/28 02:16:03;;;;;;;46.38;30.08;;;;;;;6.36;100.00;99382.84;6091097;23;20002;-88
2022/09/28 02:18:29;;;;;;;41.92;28.45;;;;;;;6.43;100.00;99392.13;6092441;23;20010;-88
2022/09/28 02:21:02;;;;;;;43.83;28.90;;;;;;;6.33;100.00;99382.19;6093061;23;20013;-89
2022/09/28 02:23:29;;;;;;;39.25;28.35;;;;;;;6.43;100.00;99396.56;6092938;23;20065;-88
2022/09/28 02:26:01;;;;;;;37.33;25.50;;;;;;;6.41;100.00;99401.09;6092141;23;20013;-88
2022/09/28 02:28:26;;;;;;;36.65;24.27;;;;;;;6.31;100.00;99386.69;6067506;23;20306;-88
2022/09/28 02:30:51;;;;;;;34.78;24.75;;;;;;;6.34;100.00;99400.56;6096447;23;20011;-88
2022/09/28 02:33:23;;;;;;;38.53;24.88;;;;;;;6.32;100.00;99396.34;6081651;23;20021;-88
2022/09/28 02:35:49;;;;;;;33.45;23.58;;;;;;;6.26;100.00;99392.22;6112544;23;20036;-88
2022/09/28 02:38:15;;;;;;;33.10;23.15;;;;;;;6.24;100.00;99408.19;6112725;23;20006;-88
2022/09/28 02:40:48;;;;;;;31.63;23.27;;;;;;;6.18;100.00;99399.72;6111955;23;20013;-89
2022/09/28 02:43:18;;;;;;;33.05;23.20;;;;;;;6.10;100.00;99396.66;6095106;23;20081;-88
2022/09/28 02:45:49;;;;;;;32.70;22.48;;;;;;;6.02;100.00;99393.59;6093576;23;20064;-88
2022/09/28 02:48:23;;;;;;;32.95;22.08;;;;;;;5.90;100.00;99393.31;6094307;23;20010;-89
2022/09/28 02:50:59;;;;;;;28.13;21.60;;;;;;;5.88;100.00;99395.16;6094103;23;20461;-88
2022/09/28 02:53:42;;;;;;;36.00;22.20;;;;;;;5.82;100.00;99395.53;6093532;23;20038;-88
2022/09/28 02:56:10;;;;;;;31.95;21.08;;;;;;;5.83;100.00;99404.28;6093466;23;20044;-88
2022/09/28 02:58:46;;;;;;;35.60;22.52;;;;;;;5.83;100.00;99404.28;6094989;23;20053;-88
2022/09/28 03:01:30;;;;;;;30.92;20.73;;;;;;;5.79;100.00;99413.31;6096048;23;20060;-88
2022/09/28 03:04:17;;;;;;;28.23;19.35;;;;;;;5.66;100.00;99397.28;6067278;23;20002;-87
2022/09/28 03:06:48;;;;;;;27.73;19.52;;;;;;;5.73;100.00;99409.22;6093450;23;20447;-89
2022/09/28 03:09:40;;;;;;;27.10;19.33;;;;;;;5.57;100.00;99389.84;6093463;23;20640;-88
2022/09/28 03:12:09;;;;;;;26.25;18.67;;;;;;;5.66;100.00;99402.56;6067451;23;20397;-88
2022/09/28 03:14:34;;;;;;;26.42;18.92;;;;;;;5.61;100.00;99399.31;6109127;23;20013;-88
2022/09/28 03:17:00;;;;;;;26.58;17.85;;;;;;;5.52;100.00;99387.47;6081933;23;20034;-88
2022/09/28 03:19:31;;;;;;;29.15;19.52;;;;;;;5.54;100.00;99392.66;6075377;23;20002;-88
2022/09/28 03:21:56;;;;;;;26.15;19.65;;;;;;;5.56;100.00;99396.94;6094183;23;20009;-89
2022/09/28 03:24:22;;;;;;;26.08;18.75;;;;;;;5.60;100.00;99409.03;6066007;23;20433;-89
2022/09/28 03:26:47;;;;;;;28.50;17.65;;;;;;;5.59;100.00;99411.72;6094462;23;20006;-88
2022/09/28 03:29:12;;;;;;;26.98;18.63;;;;;;;5.61;100.00;99404.59;6069855;23;20010;-89
2022/09/28 03:31:38;;;;;;;26.70;18.15;;;;;;;5.68;100.00;99405.94;6094909;23;20359;-88
2022/09/28 03:34:03;;;;;;;25.98;18.17;;;;;;;5.64;100.00;99393.84;6068221;23;20069;-88
2022/09/28 03:36:28;;;;;;;23.15;17.50;;;;;;;5.64;100.00;99393.84;6094150;23;20006;-88
2022/09/28 03:38:55;;;;;;;26.50;17.23;;;;;;;5.73;100.00;99407.44;6094209;23;20054;-89
2022/09/28 03:41:22;;;;;;;24.70;16.75;;;;;;;5.77;100.00;99396.69;6093582;23;20037;-88
2022/09/28 03:43:47;;;;;;;24.20;15.55;;;;;;;5.78;100.00;99404.53;6068613;23;20013;-89
2022/09/28 03:46:12;;;;;;;25.00;16.15;;;;;;;5.78;100.00;99401.06;6093560;23;20006;-89
2022/09/28 03:48:38;;;;;;;20.92;15.27;;;;;;;5.83;100.00;99397.22;6068327;23;20325;-89
2022/09/28 03:51:08;;;;;;;22.33;15.48;;;;;;;5.83;100.00;99399.84;6069214;23;20009;-89
2022/09/28 03:53:34;;;;;;;22.35;15.70;;;;;;;5.79;100.00;99395.69;6094351;23;20058;-89
2022/09/28 03:56:05;;;;;;;22.90;16.02;;;;;;;5.80;100.00;99400.00;6068763;23;20010;-89
2022/09/28 03:58:30;;;;;;;21.08;15.15;;;;;;;5.87;100.00;99413.75;6068036;23;20006;-88
2022/09/28 04:01:01;;;;;;;23.80;15.77;;;;;;;5.85;100.00;99411.19;6094240;23;20060;-88
2022/09/28 04:03:27;;;;;;;20.90;14.05;;;;;;;5.72;100.00;99392.50;6092945;23;20006;-89
2022/09/28 04:05:52;;;;;;;23.50;14.73;;;;;;;5.67;100.00;99394.53;6067064;23;20007;-89
2022/09/28 04:08:18;;;;;;;18.63;14.38;;;;;;;5.74;100.00;99416.19;6093313;23;20085;-88
2022/09/28 04:10:44;;;;;;;19.30;14.07;;;;;;;5.63;100.00;99397.44;6092845;23;20025;-88
2022/09/28 04:13:09;;;;;;;20.02;14.35;;;;;;;5.68;100.00;99406.81;6067509;23;20429;-89
2022/09/28 04:15:36;;;;;;;21.52;14.50;;;;;;;5.69;100.00;99407.69;6092802;23;20018;-88
2022/09/28 04:18:02;;;;;;;19.15;13.55;;;;;;;5.65;100.00;99406.13;6093122;23;20010;-89
2022/09/28 04:20:27;;;;;;;23.50;14.93;;;;;;;5.70;100.00;99414.66;6067379;23;20476;-88
2022/09/28 04:22:52;;;;;;;20.65;14.43;;;;;;;5.77;100.00;99409.88;6092861;23;20005;-89
2022/09/28 04:25:18;;;;;;;22.83;14.82;;;;;;;5.75;100.00;99404.69;6092667;23;20009;-88
2022/09/28 04:30:27;;;;;;;;;;;;;;;5.80;100.00;99407.94;6095460;23;20086;-88
2022/09/28 04:32:52;;;;;;;26.55;15.23;;;;;;;5.78;100.00;99408.97;6106613;23;19913;-88
2022/09/28 04:35:17;;;;;;;27.30;15.88;;;;;;;5.83;100.00;99406.94;6075136;23;20006;-87
2022/09/28 04:37:43;;;;;;;21.38;14.77;;;;;;;5.87;100.00;99411.09;6110152;23;20062;-88
2022/09/28 04:40:09;;;;;;;20.52;14.30;;;;;;;5.90;100.00;99403.03;6103983;23;20283;-88
2022/09/28 04:42:35;;;;;;;21.58;14.73;;;;;;;5.79;100.00;99393.03;6095764;23;20062;-88
2022/09/28 04:45:01;;;;;;;23.50;14.68;;;;;;;5.90;100.00;99414.44;6097951;23;20009;-88
2022/09/28 04:47:28;;;;;;;20.23;14.95;;;;;;;5.86;100.00;99397.06;6095521;23;20006;-88
2022/09/28 04:49:53;;;;;;;18.38;14.70;;;;;;;5.88;100.00;99411.00;6093926;23;20050;-88
2022/09/28 04:52:18;;;;;;;21.20;15.43;;;;;;;5.84;100.00;99405.97;6094833;23;20002;-88
2022/09/28 04:54:43;;;;;;;22.52;15.77;;;;;;;5.83;100.00;99405.13;6093560;23;20002;-87
2022/09/28 04:57:09;;;;;;;21.67;15.63;;;;;;;5.84;100.00;99409.47;6094695;23;20089;-88
2022/09/28 04:59:35;;;;;;;21.42;15.00;;;;;;;5.82;100.00;99406.06;6094525;23;20006;-87
2022/09/28 05:02:01;;;;;;;25.65;17.25;;;;;;;5.72;100.00;99408.34;6094622;23;20405;-89
2022/09/28 05:04:27;;;;;;;22.25;16.00;;;;;;;5.67;100.00;99406.91;6093498;23;20020;-89
2022/09/28 05:06:52;;;;;;;21.17;15.55;;;;;;;5.62;100.00;99411.56;6068309;23;20352;-88
2022/09/28 05:09:17;;;;;;;24.27;16.75;;;;;;;5.54;100.00;99417.25;6109528;23;20013;-88
2022/09/28 05:11:43;;;;;;;28.65;18.73;;;;;;;5.45;100.00;99415.97;6114952;23;20085;-89
2022/09/28 05:14:10;;;;;;;21.92;16.98;;;;;;;5.42;100.00;99420.53;6115363;23;20010;-89
2022/09/28 05:16:35;;;;;;;25.05;18.02;;;;;;;5.32;100.00;99404.34;6105957;23;20003;-88
2022/09/28 05:19:01;;;;;;;23.60;17.25;;;;;;;5.33;100.00;99419.22;6093297;23;20384;-87
2022/09/28 05:21:28;;;;;;;23.45;18.15;;;;;;;5.30;100.00;99423.81;6093425;23;20013;-89
2022/09/28 05:23:55;;;;;;;26.77;19.35;;;;;;;5.27;100.00;99422.19;6092979;23;20081;-88
2022/09/28 05:26:21;;;;;;;26.35;17.98;;;;;;;5.27;100.00;99432.75;6069506;23;20144;-88
2022/09/28 05:28:46;;;;;;;24.90;19.08;;;;;;;5.22;100.00;99421.56;6094139;23;20089;-88
2022/09/28 05:31:12;;;;;;;27.75;18.85;;;;;;;5.28;100.00;99429.19;6067688;23;20089;-89
2022/09/28 05:33:37;;;;;;;28.08;19.77;;;;;;;5.32;100.00;99430.72;6092769;23;20553;-88
2022/09/28 05:36:03;;;;;;;29.45;19.65;;;;;;;5.34;100.00;99431.47;6093030;23;20085;-88
2022/09/28 05:38:29;;;;;;;26.63;19.75;;;;;;;5.34;100.00;99428.84;6093152;23;20002;-89
2022/09/28 05:40:54;;;;;;;28.80;20.27;;;;;;;5.29;100.00;99427.38;6092455;23;20010;-88
2022/09/28 05:43:20;;;;;;;30.08;19.60;;;;;;;5.27;100.00;99421.31;6091665;23;20014;-88
2022/09/28 05:45:45;;;;;;;26.15;19.10;;;;;;;5.30;100.00;99426.44;6092603;23;20077;-88
2022/09/28 05:48:10;;;;;;;29.27;19.55;;;;;;;5.30;100.00;99416.75;6091710;23;20007;-88
2022/09/28 05:50:36;;;;;;;36.65;20.52;;;;;;;5.37;100.00;99426.06;6092556;23;20006;-86
2022/09/28 05:53:07;;;;;;;29.95;20.85;;;;;;;5.35;100.00;99424.41;6091792;23;20372;-86
2022/09/28 05:55:34;;;;;;;36.53;23.27;;;;;;;5.36;100.00;99431.44;6092660;23;20026;-87
2022/09/28 05:58:00;;;;;;;33.40;22.10;;;;;;;5.41;100.00;99430.25;6092756;23;20002;-87
2022/09/28 06:00:30;;;;;;;33.72;23.02;;;;;;;5.44;100.00;99426.59;6092333;23;20010;-87
2022/09/28 06:02:57;;;;;;;41.05;24.10;;;;;;;5.56;100.00;99430.34;6091796;23;20022;-90
2022/09/28 06:05:23;;;;;;;38.97;23.67;;;;;;;5.65;100.00;99433.38;6091602;23;20433;-85
2022/09/28 06:07:49;;;;;;;38.08;23.42;;;;;;;5.75;100.00;99431.09;6091932;23;20018;-85
2022/09/28 06:10:14;;;;;;;40.72;23.73;;;;;;;5.85;100.00;99442.88;6090916;23;20433;-87
2022/09/28 06:12:40;;;;;;;36.53;23.20;;;;;;;5.82;100.00;99429.00;6065074;23;20038;-86
2022/09/28 06:15:06;;;;;;;35.88;23.40;;;;;;;5.91;100.00;99439.91;6065073;23;20018;-87
2022/09/28 06:17:31;;;;;;;36.22;21.58;;;;;;;5.89;100.00;99444.41;6090098;23;20335;-85
2022/09/28 06:19:57;;;;;;;36.38;21.75;;;;;;;5.88;100.00;99444.50;6092836;23;20519;-87
2022/09/28 06:22:22;;;;;;;38.17;21.77;;;;;;;5.82;100.00;99442.19;6090713;23;20011;-87
2022/09/28 06:24:47;;;;;;;34.35;21.38;;;;;;;5.81;100.00;99456.31;6090352;23;20013;-87
2022/09/28 06:27:13;;;;;;;35.20;22.38;;;;;;;5.67;100.00;99444.69;6091384;23;20085;-87
2022/09/28 06:29:38;;;;;;;31.60;20.95;;;;;;;5.69;100.00;99455.19;6093184;23;20006;-87
2022/09/28 06:32:03;;;;;;;35.58;22.20;;;;;;;5.69;100.00;99463.13;6066547;23;20412;-87
2022/09/28 06:34:29;;;;;;;37.13;24.35;;;;;;;5.71;100.00;99455.97;6065613;23;20006;-88
2022/09/28 06:36:54;;;;;;;39.25;24.85;;;;;;;5.84;100.00;99464.91;6090812;23;20006;-87
2022/09/28 06:39:19;;;;;;;35.05;24.48;;;;;;;5.82;100.00;99469.44;6091199;23;20012;-87
2022/09/28 06:41:45;;;;;;;44.65;27.20;;;;;;;5.88;100.00;99461.19;6090631;23;20024;-87
2022/09/28 06:44:10;;;;;;;46.28;27.15;;;;;;;6.08;100.00;99462.78;6090376;23;20358;-87
2022/09/28 06:46:37;;;;;;;51.13;30.77;;;;;;;6.46;100.00;99467.75;6091770;23;20003;-87
2022/09/28 06:49:05;;;;;;;47.35;28.15;;;;;;;6.69;100.00;99469.13;6091661;23;20061;-88
2022/09/28 06:51:31;;;;;;;39.83;26.02;;;;;;;6.87;100.00;99469.84;6092501;23;20006;-87
2022/09/28 06:53:56;;;;;;;35.25;24.48;;;;;;;7.03;100.00;99475.97;6090235;23;20010;-88
2022/09/28 06:56:22;;;;;;;27.65;20.90;;;;;;;6.97;100.00;99474.50;6066813;23;20097;-88
2022/09/28 06:58:47;;;;;;;27.75;20.05;;;;;;;6.81;100.00;99476.31;6093061;23;20005;-87
2022/09/28 07:01:12;;;;;;;25.00;18.83;;;;;;;6.62;100.00;99465.09;6091687;23;20002;-87
2022/09/28 07:03:39;;;;;;;24.45;18.02;;;;;;;6.50;100.00;99464.00;6091451;23;20030;-86
2022/09/28 07:06:04;;;;;;;23.25;18.10;;;;;;;6.38;100.00;99472.59;6091422;23;20046;-87
2022/09/28 07:08:30;;;;;;;26.75;19.98;;;;;;;6.27;100.00;99461.78;6093372;23;20453;-87
2022/09/28 07:10:55;;;;;;;29.10;21.67;;;;;;;6.34;100.00;99485.13;6094001;23;20002;-86
2022/09/28 07:13:23;;;;;;;35.63;24.05;;;;;;;6.42;100.00;99488.22;6094124;23;20002;-87
2022/09/28 07:15:56;;;;;;;31.00;22.63;;;;;;;6.42;100.00;99479.44;6095964;23;20033;-87
2022/09/28 07:18:27;;;;;;;27.60;21.25;;;;;;;6.51;100.00;99489.50;6096088;23;20006;-86
2022/09/28 07:20:56;;;;;;;30.58;21.38;;;;;;;6.51;100.00;99491.28;6096191;23;20006;-88
2022/09/28 07:23:21;;;;;;;27.50;20.95;;;;;;;6.48;100.00;99482.59;6069419;23;20021;-88
2022/09/28 07:25:47;;;;;;;33.63;21.70;;;;;;;6.49;100.00;99494.88;6096195;23;20014;-88
2022/09/28 07:28:13;;;;;;;30.83;20.98;;;;;;;6.52;100.00;99490.34;6093712;23;20034;-87
2022/09/28 07:30:39;;;;;;;39.33;24.17;;;;;;;6.65;100.00;99496.66;6093107;23;20120;-87
2022/09/28 07:33:06;;;;;;;35.13;22.88;;;;;;;6.99;100.00;99504.38;6065920;23;20006;-87
2022/09/28 07:35:34;;;;;;;34.33;23.17;;;;;;;7.45;100.00;99490.25;6064932;23;20013;-84
2022/09/28 07:38:05;;;;;;;27.88;19.92;;;;;;;7.76;100.00;99491.91;6093757;23;20010;-90
2022/09/28 07:43:19;;;;;;;18.63;14.50;;;;;;;8.48;100.00;99492.75;6100962;23;20066;-88
2022/09/28 07:45:48;;;;;;;16.38;13.07;;;;;;;8.85;100.00;99504.50;6103170;23;20013;-87
2022/09/28 07:48:15;;;;;;;11.10;10.00;;;;;;;9.11;100.00;99502.81;6103602;23;20003;-87
2022/09/28 07:50:41;;;;;;;14.85;9.88;;;;;;;9.40;100.00;99510.63;6105653;23;20073;-87
2022/09/28 07:53:07;;;;;;;9.93;8.77;;;;;;;9.66;100.00;99509.72;6110708;23;19998;-87
2022/09/28 07:55:32;;;;;;;9.82;8.07;;;;;;;9.87;100.00;99515.38;6119160;23;20002;-86
2022/09/28 07:58:01;;;;;;;9.32;7.00;;;;;;;10.28;100.00;99510.78;6117297;23;20220;-87
2022/09/28 08:00:28;;;;;;;9.07;6.80;;;;;;;10.84;100.00;99509.38;6112284;23;20015;-86
2022/09/28 08:02:53;;;;;;;7.30;6.15;;;;;;;11.30;99.03;99513.97;6070131;23;20030;-86
2022/09/28 08:05:19;;;;;;;8.32;6.22;;;;;;;11.64;96.82;99520.25;6094525;23;20530;-86
2022/09/28 08:07:44;;;;;;;6.32;5.72;;;;;;;12.14;93.21;99520.00;6097500;23;20044;-86
2022/09/28 08:10:10;;;;;;;9.20;5.85;;;;;;;12.64;91.65;99518.66;6069281;23;20417;-85
2022/09/28 08:12:37;;;;;;;6.90;5.35;;;;;;;12.91;89.25;99507.53;6093414;23;20009;-86
2022/09/28 08:15:05;;;;;;;10.77;7.93;;;;;;;13.31;87.34;99514.97;6093928;23;20002;-87
2022/09/28 08:17:30;;;;;;;9.77;6.03;;;;;;;13.72;84.43;99502.63;6093077;23;20006;-87
2022/09/28 08:22:53;;;;;;;7.18;4.78;;;;;;;14.11;79.63;99529.59;6004004;23;20049;-88
2022/09/28 08:25:19;;;;;;;7.45;4.88;;;;;;;14.30;79.87;99521.69;6004227;23;20370;-87
2022/09/28 08:27:45;;;;;;;6.22;4.47;;;;;;;14.62;77.06;99532.25;6007379;23;20036;-88
2022/09/28 08:30:10;;;;;;;7.15;6.38;;;;;;;14.80;75.96;99535.16;6003821;23;20201;-87
2022/09/28 08:32:35;;;;;;;8.02;5.75;;;;;;;15.00;75.04;99527.13;5978737;23;20022;-88
2022/09/28 08:35:01;;;;;;;8.75;7.63;;;;;;;15.36;73.43;99536.38;6004022;23;20074;-87
2022/09/28 08:37:26;;;;;;;13.32;12.13;;;;;;;15.84;73.18;99535.50;6003644;23;20075;-88
2022/09/28 08:39:51;;;;;;;7.93;7.22;;;;;;;16.43;72.17;99537.91;6003513;23;20057;-88
2022/09/28 08:42:32;;;;;;;5.97;5.30;;;;;;;16.95;74.16;99529.34;5979579;23;20022;-87
2022/09/28 08:45:06;;;;;;;13.32;12.20;;;;;;;17.35;67.52;99542.38;6003684;23;20082;-87
2022/09/28 08:50:55;;;;;;;6.07;4.82;;;;;;;17.92;66.52;99544.75;6003755;23;20107;-86
2022/09/28 08:53:49;;;;;;;10.77;9.10;;;;;;;17.75;64.01;99548.31;6003105;23;20098;-85
2022/09/28 08:56:26;;;;;;;5.82;4.45;;;;;;;17.30;66.95;99552.72;6004166;23;20363;-86
2022/09/28 08:58:58;;;;;;;7.57;4.53;;;;;;;17.45;65.04;99554.91;6062913;23;20318;-89
2022/09/28 09:01:28;;;;;;;7.85;4.30;;;;;;;17.95;62.38;99557.06;6090522;23;20006;-84
2022/09/28 09:03:54;;;;;;;10.65;9.20;;;;;;;18.53;60.38;99553.72;6066321;23;20017;-84
2022/09/28 09:06:30;;;;;;;4.82;3.88;;;;;;;18.85;60.24;99558.44;6091225;23;20010;-85
2022/09/28 09:09:08;;;;;;;5.47;3.75;;;;;;;18.93;59.88;99561.16;6090750;23;20037;-84
2022/09/28 09:12:02;;;;;;;7.72;5.85;;;;;;;19.63;60.98;99571.66;6091752;23;20010;-85
2022/09/28 09:14:42;;;;;;;5.10;3.42;;;;;;;19.89;56.34;99568.78;6091745;23;20010;-84
2022/09/28 09:17:28;;;;;;;4.35;3.33;;;;;;;20.07;57.05;99574.03;6091682;23;20006;-84
2022/09/28 09:20:19;;;;;;;6.43;4.38;;;;;;;20.54;60.62;99582.25;6090796;23;20003;-85
2022/09/28 09:23:07;;;;;;;11.60;5.30;;;;;;;20.96;52.20;99572.16;6091144;23;20033;-85
2022/09/28 09:25:53;;;;;;;6.25;4.47;;;;;;;21.41;57.57;99568.72;6069298;23;20636;-86
2022/09/28 09:28:47;;;;;;;4.40;3.00;;;;;;;21.85;57.27;99585.16;6091641;23;20497;-85
2022/09/28 09:31:18;;;;;;;;;;;;;;;22.04;60.58;99581.13;6091040;23;20444;-85
2022/09/28 09:33:51;;;;;;;3.80;2.53;;;;;;;21.52;50.48;99581.84;6066715;23;19937;-86
2022/09/28 09:36:34;;;;;;;4.72;2.10;;;;;;;21.82;53.32;99585.53;6089270;23;20097;-85
2022/09/28 09:39:24;;;;;;;8.60;6.28;;;;;;;22.90;52.97;99584.34;6092673;23;20022;-85
2022/09/28 09:42:16;;;;;;;3.38;2.33;;;;;;;22.95;47.29;99592.78;6090639;23;20392;-85
2022/09/28 09:44:58;;;;;;;3.47;2.28;;;;;;;21.16;51.77;99594.22;6046325;23;20181;-85
2022/09/28 09:47:51;;;;;;;3.90;3.00;;;;;;;19.34;60.11;99596.38;6091109;23;20037;-84
2022/09/28 09:50:29;;;;;;;;;;;;;;;18.90;63.41;99596.56;6091020;23;20030;-85
2022/09/28 09:53:01;;;;;;;4.43;3.45;;;;;;;16.78;59.50;99594.63;6089783;23;19936;-84
2022/09/28 09:55:46;;;;;;;4.78;3.30;;;;;;;16.76;62.26;99596.63;6065499;23;20617;-84
2022/09/28 09:58:22;;;;;;;5.22;3.50;;;;;;;19.65;59.98;99583.16;6091502;23;19998;-85
2022/09/28 10:00:51;;;;;;;5.60;2.92;;;;;;;22.04;50.99;99583.00;6090966;23;20964;-85
2022/09/28 10:03:22;;;;;;;5.15;3.28;;;;;;;23.58;46.58;99579.53;6092513;23;20010;-85
2022/09/28 10:05:54;;;;;;;4.80;2.80;;;;;;;24.43;44.38;99591.44;6094508;23;20037;-85
2022/09/28 10:08:22;;;;;;;5.32;2.95;;;;;;;24.65;42.38;99595.75;6077343;23;20007;-87
2022/09/28 10:10:52;;;;;;;2.50;2.25;;;;;;;22.58;44.15;99590.97;6103077;23;20011;-86
2022/09/28 10:13:18;;;;;;;4.53;2.38;;;;;;;22.55;46.62;99583.19;6112150;23;20014;-86
2022/09/28 10:15:46;;;;;;;3.97;2.47;;;;;;;24.35;44.11;99595.94;6093576;23;20006;-85
2022/09/28 10:18:15;;;;;;;3.22;2.20;;;;;;;25.20;39.11;99582.25;6091484;23;20418;-86
2022/09/28 10:20:43;;;;;;;5.70;2.95;;;;;;;23.73;41.35;99584.94;6092608;23;20049;-86
2022/09/28 10:23:26;;;;;;;4.50;2.50;;;;;;;22.60;47.60;99578.88;6094125;23;20018;-85
2022/09/28 10:25:58;;;;;;;3.63;2.35;;;;;;;21.28;44.76;99581.97;6094321;23;20002;-84
2022/09/28 10:28:32;;;;;;;3.17;2.15;;;;;;;22.09;47.35;99588.69;6094512;23;20011;-87
2022/09/28 10:30:58;;;;;;;2.85;2.10;;;;;;;22.21;44.33;99584.56;6070908;23;20006;-85
2022/09/28 10:33:32;;;;;;;8.13;2.13;;;;;;;20.75;49.00;99595.22;6117981;23;20030;-85
2022/09/28 10:36:03;;;;;;;2.95;2.28;;;;;;;19.85;50.85;99587.19;6117773;23;20034;-84
2022/09/28 10:38:29;;;;;;;3.55;2.42;;;;;;;21.40;47.29;99572.44;6116914;23;20006;-86
2022/09/28 10:40:59;;;;;;;3.90;2.20;;;;;;;21.81;45.32;99583.84;6115023;23;20054;-86
2022/09/28 10:43:37;;;;;;;3.88;2.30;;;;;;;20.91;47.16;99590.78;6116194;23;20005;-86
2022/09/28 10:46:07;;;;;;;3.97;2.30;;;;;;;20.37;48.34;99600.34;6115995;23;20076;-85
2022/09/28 10:49:03;;;;;;;5.40;3.50;;;;;;;19.81;51.58;99596.63;6085432;23;20007;-85
2022/09/28 10:51:48;;;;;;;4.28;2.65;;;;;;;19.84;52.44;99593.59;6094053;23;20015;-85
2022/09/28 10:54:21;;;;;;;6.05;3.25;;;;;;;22.05;44.09;99579.25;6093815;23;20512;-86
2022/09/28 10:56:48;;;;;;;3.42;2.80;;;;;;;22.98;42.27;99581.53;6095034;23;20022;-86
2022/09/28 10:59:28;;;;;;;6.18;2.60;;;;;;;23.86;43.37;99579.63;6094619;23;20024;-84
2022/09/28 11:01:58;;;;;;;2.55;2.35;;;;;;;23.25;42.01;99588.16;6068990;23;20383;-85
2022/09/28 11:04:27;;;;;;;4.15;2.17;;;;;;;21.11;44.21;99586.63;6095301;23;20077;-85
2022/09/28 11:06:59;;;;;;;3.00;2.35;;;;;;;19.39;46.45;99592.16;6093182;23;20014;-83
2022/09/28 11:09:33;;;;;;;3.28;2.10;;;;;;;18.26;51.25;99587.91;6091337;23;20012;-84
2022/09/28 11:12:02;;;;;;;5.10;2.40;;;;;;;19.22;51.19;99598.50;6064685;23;20002;-84
2022/09/28 11:14:36;;;;;;;6.65;2.28;;;;;;;22.20;46.64;99591.00;6090691;23;20089;-85
2022/09/28 11:17:29;;;;;;;3.95;2.70;;;;;;;23.30;44.65;99595.72;6090511;23;20002;-84
2022/09/28 11:20:15;;;;;;;4.60;2.42;;;;;;;21.76;42.58;99585.41;6066926;23;20069;-84
2022/09/28 11:22:41;;;;;;;4.22;2.95;;;;;;;20.07;45.97;99592.94;6065550;23;20480;-86
2022/09/28 11:25:15;;;;;;;4.07;2.75;;;;;;;19.27;50.27;99598.91;6091262;23;20006;-84
2022/09/28 11:27:50;;;;;;;4.65;2.33;;;;;;;18.77;48.94;99594.31;6092033;23;20022;-85
2022/09/28 11:30:44;;;;;;;3.03;2.58;;;;;;;18.70;52.11;99592.41;6088621;23;20007;-86
2022/09/28 11:33:31;;;;;;;4.00;2.63;;;;;;;21.49;47.76;99584.94;6074225;23;20017;-84
2022/09/28 11:36:11;;;;;;;3.35;2.20;;;;;;;24.06;41.13;99582.53;6091715;23;20201;-84
2022/09/28 11:38:58;;;;;;;3.55;2.30;;;;;;;25.79;37.07;99573.41;6088948;23;20418;-85
2022/09/28 11:41:39;;;;;;;5.35;2.33;;;;;;;27.40;33.99;99583.91;6088131;23;20294;-85
2022/09/28 11:44:29;;;;;;;3.50;1.83;;;;;;;28.43;32.62;99584.50;6090078;23;20074;-85
2022/09/28 11:47:36;;;;;;;2.53;1.70;;;;;;;28.81;34.75;99590.84;6090476;23;20555;-85